sensor_id;sensor_type;location;lat;lon;timestamp;P1;durP1;ratioP1;P2;durP2;ratioP2
45887;SDS011;31595;51.418;7.572;2023-04-24T00:01:26;0.60;;;0.40;;
45887;SDS011;31595;51.418;7.572;2023-04-24T00:03:55;1.25;;;0.50;;
45887;SDS011;31595;51.418;7.572;2023-04-24T00:08:58;1.00;;;0.70;;
45887;SDS011;31595;51.418;7.572;2023-04-24T00:11:26;1.13;;;0.60;;
45887;SDS011;31595;51.418;7.572;2023-04-24T00:13:53;1.20;;;0.55;;
45887;SDS011;31595;51.418;7.572;2023-04-24T00:16:21;1.25;;;0.50;;
45887;SDS011;31595;51.418;7.572;2023-04-24T00:18:50;1.92;;;0.73;;
45887;SDS011;31595;51.418;7.572;2023-04-24T00:21:21;2.78;;;0.70;;
45887;SDS011;31595;51.418;7.572;2023-04-24T00:23:51;2.10;;;0.65;;
45887;SDS011;31595;51.418;7.572;2023-04-24T00:26:18;1.10;;;0.60;;
45887;SDS011;31595;51.418;7.572;2023-04-24T00:28:45;1.33;;;0.50;;
45887;SDS011;31595;51.418;7.572;2023-04-24T00:31:13;1.30;;;0.60;;
45887;SDS011;31595;51.418;7.572;2023-04-24T00:33:40;1.20;;;0.60;;
45887;SDS011;31595;51.418;7.572;2023-04-24T00:36:09;1.40;;;0.85;;
45887;SDS011;31595;51.418;7.572;2023-04-24T00:38:36;1.73;;;0.80;;
45887;SDS011;31595;51.418;7.572;2023-04-24T00:41:04;1.13;;;0.60;;
45887;SDS011;31595;51.418;7.572;2023-04-24T00:43:31;1.30;;;0.70;;
45887;SDS011;31595;51.418;7.572;2023-04-24T00:45:58;1.30;;;0.80;;
45887;SDS011;31595;51.418;7.572;2023-04-24T00:48:27;1.83;;;0.80;;
45887;SDS011;31595;51.418;7.572;2023-04-24T00:50:54;1.55;;;0.68;;
45887;SDS011;31595;51.418;7.572;2023-04-24T00:53:24;1.17;;;0.70;;
45887;SDS011;31595;51.418;7.572;2023-04-24T00:55:51;1.70;;;0.80;;
45887;SDS011;31595;51.418;7.572;2023-04-24T00:58:19;1.80;;;0.75;;
45887;SDS011;31595;51.418;7.572;2023-04-24T01:00:46;1.70;;;0.80;;
45887;SDS011;31595;51.418;7.572;2023-04-24T01:03:16;2.53;;;0.80;;
45887;SDS011;31595;51.418;7.572;2023-04-24T01:05:44;1.10;;;0.70;;
45887;SDS011;31595;51.418;7.572;2023-04-24T01:08:12;1.60;;;0.85;;
45887;SDS011;31595;51.418;7.572;2023-04-24T01:10:41;1.15;;;0.75;;
45887;SDS011;31595;51.418;7.572;2023-04-24T01:13:10;1.83;;;0.88;;
45887;SDS011;31595;51.418;7.572;2023-04-24T01:15:38;2.03;;;0.80;;
45887;SDS011;31595;51.418;7.572;2023-04-24T01:18:05;2.25;;;0.77;;
45887;SDS011;31595;51.418;7.572;2023-04-24T01:20:32;2.22;;;0.82;;
45887;SDS011;31595;51.418;7.572;2023-04-24T01:25:30;1.80;;;0.90;;
45887;SDS011;31595;51.418;7.572;2023-04-24T01:27:58;1.73;;;0.73;;
45887;SDS011;31595;51.418;7.572;2023-04-24T01:30:26;1.35;;;0.90;;
45887;SDS011;31595;51.418;7.572;2023-04-24T01:32:53;1.48;;;1.10;;
45887;SDS011;31595;51.418;7.572;2023-04-24T01:35:22;1.48;;;0.80;;
45887;SDS011;31595;51.418;7.572;2023-04-24T01:37:49;1.15;;;0.80;;
45887;SDS011;31595;51.418;7.572;2023-04-24T01:40:18;1.70;;;0.85;;
45887;SDS011;31595;51.418;7.572;2023-04-24T01:42:45;1.83;;;0.90;;
45887;SDS011;31595;51.418;7.572;2023-04-24T01:45:12;1.77;;;0.85;;
45887;SDS011;31595;51.418;7.572;2023-04-24T01:47:40;1.20;;;0.80;;
45887;SDS011;31595;51.418;7.572;2023-04-24T01:50:07;1.65;;;0.70;;
45887;SDS011;31595;51.418;7.572;2023-04-24T01:52:35;1.42;;;1.00;;
45887;SDS011;31595;51.418;7.572;2023-04-24T01:55:03;1.67;;;1.00;;
45887;SDS011;31595;51.418;7.572;2023-04-24T01:57:33;1.83;;;0.88;;
45887;SDS011;31595;51.418;7.572;2023-04-24T02:00:00;1.20;;;0.80;;
45887;SDS011;31595;51.418;7.572;2023-04-24T02:02:29;1.90;;;1.10;;
45887;SDS011;31595;51.418;7.572;2023-04-24T02:04:57;1.85;;;1.10;;
45887;SDS011;31595;51.418;7.572;2023-04-24T02:07:24;1.98;;;1.08;;
45887;SDS011;31595;51.418;7.572;2023-04-24T02:09:51;1.73;;;1.00;;
45887;SDS011;31595;51.418;7.572;2023-04-24T02:12:19;1.50;;;1.00;;
45887;SDS011;31595;51.418;7.572;2023-04-24T02:14:47;2.47;;;1.52;;
45887;SDS011;31595;51.418;7.572;2023-04-24T02:17:15;2.45;;;1.20;;
45887;SDS011;31595;51.418;7.572;2023-04-24T02:19:42;3.40;;;1.40;;
45887;SDS011;31595;51.418;7.572;2023-04-24T02:22:09;2.28;;;1.40;;
45887;SDS011;31595;51.418;7.572;2023-04-24T02:24:37;3.20;;;1.60;;
45887;SDS011;31595;51.418;7.572;2023-04-24T02:27:04;2.17;;;1.33;;
45887;SDS011;31595;51.418;7.572;2023-04-24T02:29:32;1.95;;;1.40;;
45887;SDS011;31595;51.418;7.572;2023-04-24T02:32:00;2.30;;;1.27;;
45887;SDS011;31595;51.418;7.572;2023-04-24T02:34:28;2.80;;;1.50;;
45887;SDS011;31595;51.418;7.572;2023-04-24T02:36:55;2.22;;;1.70;;
45887;SDS011;31595;51.418;7.572;2023-04-24T02:39:22;2.63;;;1.73;;
45887;SDS011;31595;51.418;7.572;2023-04-24T02:41:49;2.88;;;2.00;;
45887;SDS011;31595;51.418;7.572;2023-04-24T02:44:17;2.85;;;2.08;;
45887;SDS011;31595;51.418;7.572;2023-04-24T02:46:44;2.25;;;1.80;;
45887;SDS011;31595;51.418;7.572;2023-04-24T02:49:12;2.47;;;1.92;;
45887;SDS011;31595;51.418;7.572;2023-04-24T02:51:40;3.00;;;1.73;;
45887;SDS011;31595;51.418;7.572;2023-04-24T02:54:07;2.85;;;1.77;;
45887;SDS011;31595;51.418;7.572;2023-04-24T02:56:35;3.60;;;2.20;;
45887;SDS011;31595;51.418;7.572;2023-04-24T02:59:02;2.63;;;2.03;;
45887;SDS011;31595;51.418;7.572;2023-04-24T03:01:30;2.90;;;2.55;;
45887;SDS011;31595;51.418;7.572;2023-04-24T03:03:57;3.42;;;2.35;;
45887;SDS011;31595;51.418;7.572;2023-04-24T03:06:26;4.30;;;2.97;;
45887;SDS011;31595;51.418;7.572;2023-04-24T03:08:53;4.72;;;3.65;;
45887;SDS011;31595;51.418;7.572;2023-04-24T03:11:21;4.85;;;4.03;;
45887;SDS011;31595;51.418;7.572;2023-04-24T03:13:48;7.38;;;4.40;;
45887;SDS011;31595;51.418;7.572;2023-04-24T03:16:15;5.63;;;4.82;;
45887;SDS011;31595;51.418;7.572;2023-04-24T03:18:42;6.78;;;6.07;;
45887;SDS011;31595;51.418;7.572;2023-04-24T03:21:10;7.80;;;6.18;;
45887;SDS011;31595;51.418;7.572;2023-04-24T03:23:39;8.30;;;6.18;;
45887;SDS011;31595;51.418;7.572;2023-04-24T03:26:06;7.40;;;6.63;;
45887;SDS011;31595;51.418;7.572;2023-04-24T03:28:34;8.30;;;6.65;;
45887;SDS011;31595;51.418;7.572;2023-04-24T03:31:02;7.40;;;5.93;;
45887;SDS011;31595;51.418;7.572;2023-04-24T03:33:29;7.88;;;7.05;;
45887;SDS011;31595;51.418;7.572;2023-04-24T03:35:56;9.32;;;7.82;;
45887;SDS011;31595;51.418;7.572;2023-04-24T03:38:24;9.00;;;7.63;;
45887;SDS011;31595;51.418;7.572;2023-04-24T03:40:53;9.23;;;8.02;;
45887;SDS011;31595;51.418;7.572;2023-04-24T03:43:20;8.77;;;7.83;;
45887;SDS011;31595;51.418;7.572;2023-04-24T03:45:47;9.35;;;8.07;;
45887;SDS011;31595;51.418;7.572;2023-04-24T03:48:14;10.10;;;8.05;;
45887;SDS011;31595;51.418;7.572;2023-04-24T03:50:42;8.68;;;7.45;;
45887;SDS011;31595;51.418;7.572;2023-04-24T03:53:09;10.35;;;7.90;;
45887;SDS011;31595;51.418;7.572;2023-04-24T03:55:36;12.68;;;8.60;;
45887;SDS011;31595;51.418;7.572;2023-04-24T03:58:05;9.98;;;8.27;;
45887;SDS011;31595;51.418;7.572;2023-04-24T04:00:32;10.27;;;7.90;;
45887;SDS011;31595;51.418;7.572;2023-04-24T04:03:00;12.50;;;8.82;;
45887;SDS011;31595;51.418;7.572;2023-04-24T04:05:27;9.65;;;8.40;;
45887;SDS011;31595;51.418;7.572;2023-04-24T04:07:54;13.88;;;8.55;;
45887;SDS011;31595;51.418;7.572;2023-04-24T04:10:22;9.43;;;8.15;;
45887;SDS011;31595;51.418;7.572;2023-04-24T04:12:49;9.88;;;7.70;;
45887;SDS011;31595;51.418;7.572;2023-04-24T04:15:18;10.30;;;8.40;;
45887;SDS011;31595;51.418;7.572;2023-04-24T04:17:45;12.77;;;8.80;;
45887;SDS011;31595;51.418;7.572;2023-04-24T04:20:12;12.15;;;8.18;;
45887;SDS011;31595;51.418;7.572;2023-04-24T04:22:40;11.77;;;7.90;;
45887;SDS011;31595;51.418;7.572;2023-04-24T04:25:07;9.82;;;7.47;;
45887;SDS011;31595;51.418;7.572;2023-04-24T04:27:35;13.90;;;7.93;;
45887;SDS011;31595;51.418;7.572;2023-04-24T04:30:02;11.98;;;7.70;;
45887;SDS011;31595;51.418;7.572;2023-04-24T04:32:32;10.77;;;8.25;;
45887;SDS011;31595;51.418;7.572;2023-04-24T04:35:00;8.82;;;7.68;;
45887;SDS011;31595;51.418;7.572;2023-04-24T04:37:28;10.55;;;7.78;;
45887;SDS011;31595;51.418;7.572;2023-04-24T04:39:56;10.65;;;8.32;;
45887;SDS011;31595;51.418;7.572;2023-04-24T04:42:24;10.15;;;7.70;;
45887;SDS011;31595;51.418;7.572;2023-04-24T04:44:52;8.93;;;6.93;;
45887;SDS011;31595;51.418;7.572;2023-04-24T04:47:20;9.18;;;7.53;;
45887;SDS011;31595;51.418;7.572;2023-04-24T04:49:50;10.07;;;7.53;;
45887;SDS011;31595;51.418;7.572;2023-04-24T04:52:18;9.15;;;7.15;;
45887;SDS011;31595;51.418;7.572;2023-04-24T04:54:45;8.65;;;7.40;;
45887;SDS011;31595;51.418;7.572;2023-04-24T04:57:12;8.43;;;7.03;;
45887;SDS011;31595;51.418;7.572;2023-04-24T04:59:40;9.90;;;7.78;;
45887;SDS011;31595;51.418;7.572;2023-04-24T05:02:07;11.48;;;8.05;;
45887;SDS011;31595;51.418;7.572;2023-04-24T05:04:34;10.93;;;7.85;;
45887;SDS011;31595;51.418;7.572;2023-04-24T05:07:03;11.18;;;8.23;;
45887;SDS011;31595;51.418;7.572;2023-04-24T05:09:31;11.13;;;7.80;;
45887;SDS011;31595;51.418;7.572;2023-04-24T05:11:58;10.77;;;8.00;;
45887;SDS011;31595;51.418;7.572;2023-04-24T05:14:26;9.57;;;7.95;;
45887;SDS011;31595;51.418;7.572;2023-04-24T05:16:53;9.75;;;8.10;;
45887;SDS011;31595;51.418;7.572;2023-04-24T05:19:20;11.23;;;8.55;;
45887;SDS011;31595;51.418;7.572;2023-04-24T05:21:47;10.07;;;8.38;;
45887;SDS011;31595;51.418;7.572;2023-04-24T05:24:16;10.68;;;8.02;;
45887;SDS011;31595;51.418;7.572;2023-04-24T05:26:43;11.15;;;8.15;;
45887;SDS011;31595;51.418;7.572;2023-04-24T05:29:10;8.23;;;7.32;;
45887;SDS011;31595;51.418;7.572;2023-04-24T05:31:38;9.10;;;7.20;;
45887;SDS011;31595;51.418;7.572;2023-04-24T05:34:05;8.98;;;7.13;;
45887;SDS011;31595;51.418;7.572;2023-04-24T05:36:33;9.18;;;6.85;;
45887;SDS011;31595;51.418;7.572;2023-04-24T05:39:00;8.50;;;6.85;;
45887;SDS011;31595;51.418;7.572;2023-04-24T05:42:04;10.13;;;7.47;;
45887;SDS011;31595;51.418;7.572;2023-04-24T05:44:32;8.65;;;7.13;;
45887;SDS011;31595;51.418;7.572;2023-04-24T05:46:59;8.07;;;6.47;;
45887;SDS011;31595;51.418;7.572;2023-04-24T05:49:27;9.40;;;6.65;;
45887;SDS011;31595;51.418;7.572;2023-04-24T05:51:54;8.80;;;6.93;;
45887;SDS011;31595;51.418;7.572;2023-04-24T05:54:21;9.00;;;6.03;;
45887;SDS011;31595;51.418;7.572;2023-04-24T05:56:49;8.43;;;5.85;;
45887;SDS011;31595;51.418;7.572;2023-04-24T05:59:17;7.88;;;5.63;;
45887;SDS011;31595;51.418;7.572;2023-04-24T06:01:45;6.47;;;5.63;;
45887;SDS011;31595;51.418;7.572;2023-04-24T06:04:12;6.45;;;5.47;;
45887;SDS011;31595;51.418;7.572;2023-04-24T06:06:40;7.15;;;5.90;;
45887;SDS011;31595;51.418;7.572;2023-04-24T06:09:07;7.38;;;5.80;;
45887;SDS011;31595;51.418;7.572;2023-04-24T06:11:35;9.20;;;6.70;;
45887;SDS011;31595;51.418;7.572;2023-04-24T06:14:02;7.35;;;6.07;;
45887;SDS011;31595;51.418;7.572;2023-04-24T06:16:31;7.07;;;6.13;;
45887;SDS011;31595;51.418;7.572;2023-04-24T06:18:58;6.47;;;5.88;;
45887;SDS011;31595;51.418;7.572;2023-04-24T06:21:25;7.40;;;5.57;;
45887;SDS011;31595;51.418;7.572;2023-04-24T06:23:55;6.45;;;5.75;;
45887;SDS011;31595;51.418;7.572;2023-04-24T06:26:23;6.30;;;5.70;;
45887;SDS011;31595;51.418;7.572;2023-04-24T06:28:52;6.40;;;5.50;;
45887;SDS011;31595;51.418;7.572;2023-04-24T06:31:20;8.32;;;5.47;;
45887;SDS011;31595;51.418;7.572;2023-04-24T06:33:49;5.97;;;5.03;;
45887;SDS011;31595;51.418;7.572;2023-04-24T06:36:16;6.30;;;4.95;;
45887;SDS011;31595;51.418;7.572;2023-04-24T06:38:43;5.25;;;4.68;;
45887;SDS011;31595;51.418;7.572;2023-04-24T06:41:11;6.05;;;4.82;;
45887;SDS011;31595;51.418;7.572;2023-04-24T06:43:38;4.50;;;3.83;;
45887;SDS011;31595;51.418;7.572;2023-04-24T06:46:05;5.47;;;4.20;;
45887;SDS011;31595;51.418;7.572;2023-04-24T06:48:33;4.90;;;3.90;;
45887;SDS011;31595;51.418;7.572;2023-04-24T06:51:01;5.88;;;3.50;;
45887;SDS011;31595;51.418;7.572;2023-04-24T06:53:29;4.50;;;3.50;;
45887;SDS011;31595;51.418;7.572;2023-04-24T06:55:56;3.95;;;3.50;;
45887;SDS011;31595;51.418;7.572;2023-04-24T06:58:24;4.07;;;3.53;;
45887;SDS011;31595;51.418;7.572;2023-04-24T07:00:51;5.28;;;3.35;;
45887;SDS011;31595;51.418;7.572;2023-04-24T07:03:18;4.32;;;3.45;;
45887;SDS011;31595;51.418;7.572;2023-04-24T07:05:46;4.95;;;3.03;;
45887;SDS011;31595;51.418;7.572;2023-04-24T07:08:14;6.43;;;4.10;;
45887;SDS011;31595;51.418;7.572;2023-04-24T07:13:10;5.35;;;3.80;;
45887;SDS011;31595;51.418;7.572;2023-04-24T07:15:37;5.82;;;4.00;;
45887;SDS011;31595;51.418;7.572;2023-04-24T07:18:06;5.20;;;4.20;;
45887;SDS011;31595;51.418;7.572;2023-04-24T07:20:34;4.90;;;4.30;;
45887;SDS011;31595;51.418;7.572;2023-04-24T07:23:01;4.53;;;4.03;;
45887;SDS011;31595;51.418;7.572;2023-04-24T07:25:30;4.93;;;3.97;;
45887;SDS011;31595;51.418;7.572;2023-04-24T07:27:58;7.00;;;3.93;;
45887;SDS011;31595;51.418;7.572;2023-04-24T07:30:25;6.13;;;4.47;;
45887;SDS011;31595;51.418;7.572;2023-04-24T07:32:54;4.85;;;4.15;;
45887;SDS011;31595;51.418;7.572;2023-04-24T07:35:21;5.82;;;4.53;;
45887;SDS011;31595;51.418;7.572;2023-04-24T07:37:50;5.00;;;4.45;;
45887;SDS011;31595;51.418;7.572;2023-04-24T07:40:18;4.90;;;3.90;;
45887;SDS011;31595;51.418;7.572;2023-04-24T07:42:47;5.80;;;4.10;;
45887;SDS011;31595;51.418;7.572;2023-04-24T07:45:15;3.67;;;3.00;;
45887;SDS011;31595;51.418;7.572;2023-04-24T07:47:42;3.70;;;3.00;;
45887;SDS011;31595;51.418;7.572;2023-04-24T07:50:11;3.78;;;2.90;;
45887;SDS011;31595;51.418;7.572;2023-04-24T07:52:39;3.78;;;2.38;;
45887;SDS011;31595;51.418;7.572;2023-04-24T07:55:06;3.38;;;2.53;;
45887;SDS011;31595;51.418;7.572;2023-04-24T07:57:34;2.92;;;2.45;;
45887;SDS011;31595;51.418;7.572;2023-04-24T08:00:04;2.60;;;2.35;;
45887;SDS011;31595;51.418;7.572;2023-04-24T08:02:32;2.90;;;2.33;;
45887;SDS011;31595;51.418;7.572;2023-04-24T08:04:59;3.70;;;2.08;;
45887;SDS011;31595;51.418;7.572;2023-04-24T08:07:28;2.35;;;1.80;;
45887;SDS011;31595;51.418;7.572;2023-04-24T08:09:56;2.60;;;1.70;;
45887;SDS011;31595;51.418;7.572;2023-04-24T08:12:23;2.50;;;1.40;;
45887;SDS011;31595;51.418;7.572;2023-04-24T08:14:50;1.70;;;1.08;;
45887;SDS011;31595;51.418;7.572;2023-04-24T08:17:19;1.50;;;1.00;;
45887;SDS011;31595;51.418;7.572;2023-04-24T08:19:46;1.50;;;0.95;;
45887;SDS011;31595;51.418;7.572;2023-04-24T08:22:14;1.33;;;0.98;;
45887;SDS011;31595;51.418;7.572;2023-04-24T08:24:41;1.50;;;0.90;;
45887;SDS011;31595;51.418;7.572;2023-04-24T08:27:09;1.70;;;0.93;;
45887;SDS011;31595;51.418;7.572;2023-04-24T08:29:37;1.10;;;0.80;;
45887;SDS011;31595;51.418;7.572;2023-04-24T08:32:04;1.08;;;0.70;;
45887;SDS011;31595;51.418;7.572;2023-04-24T08:34:33;1.17;;;0.70;;
45887;SDS011;31595;51.418;7.572;2023-04-24T08:37:00;1.48;;;0.80;;
45887;SDS011;31595;51.418;7.572;2023-04-24T08:39:28;1.60;;;0.70;;
45887;SDS011;31595;51.418;7.572;2023-04-24T08:41:56;1.40;;;0.73;;
45887;SDS011;31595;51.418;7.572;2023-04-24T08:44:23;0.70;;;0.50;;
45887;SDS011;31595;51.418;7.572;2023-04-24T08:46:50;1.02;;;0.60;;
45887;SDS011;31595;51.418;7.572;2023-04-24T08:49:19;1.40;;;0.90;;
45887;SDS011;31595;51.418;7.572;2023-04-24T08:51:48;2.90;;;0.70;;
45887;SDS011;31595;51.418;7.572;2023-04-24T08:54:17;1.58;;;0.40;;
45887;SDS011;31595;51.418;7.572;2023-04-24T08:56:45;0.50;;;0.30;;
45887;SDS011;31595;51.418;7.572;2023-04-24T08:59:15;1.00;;;0.40;;
45887;SDS011;31595;51.418;7.572;2023-04-24T09:01:42;1.30;;;0.50;;
45887;SDS011;31595;51.418;7.572;2023-04-24T09:04:12;0.77;;;0.50;;
45887;SDS011;31595;51.418;7.572;2023-04-24T09:06:41;0.85;;;0.52;;
45887;SDS011;31595;51.418;7.572;2023-04-24T09:09:11;1.73;;;0.70;;
45887;SDS011;31595;51.418;7.572;2023-04-24T09:11:38;1.00;;;0.50;;
45887;SDS011;31595;51.418;7.572;2023-04-24T09:14:06;0.63;;;0.40;;
45887;SDS011;31595;51.418;7.572;2023-04-24T09:16:35;0.75;;;0.50;;
45887;SDS011;31595;51.418;7.572;2023-04-24T09:19:03;1.20;;;0.50;;
45887;SDS011;31595;51.418;7.572;2023-04-24T09:21:31;1.15;;;0.50;;
45887;SDS011;31595;51.418;7.572;2023-04-24T09:23:59;1.00;;;0.50;;
45887;SDS011;31595;51.418;7.572;2023-04-24T09:26:30;0.82;;;0.47;;
45887;SDS011;31595;51.418;7.572;2023-04-24T09:28:59;1.20;;;0.60;;
45887;SDS011;31595;51.418;7.572;2023-04-24T09:31:26;1.23;;;0.60;;
45887;SDS011;31595;51.418;7.572;2023-04-24T09:33:55;1.45;;;0.80;;
45887;SDS011;31595;51.418;7.572;2023-04-24T09:36:27;1.45;;;0.80;;
45887;SDS011;31595;51.418;7.572;2023-04-24T09:38:57;2.58;;;0.90;;
45887;SDS011;31595;51.418;7.572;2023-04-24T09:41:26;1.35;;;0.73;;
45887;SDS011;31595;51.418;7.572;2023-04-24T09:43:55;2.20;;;0.80;;
45887;SDS011;31595;51.418;7.572;2023-04-24T09:46:29;1.35;;;0.77;;
45887;SDS011;31595;51.418;7.572;2023-04-24T09:48:57;1.33;;;0.95;;
45887;SDS011;31595;51.418;7.572;2023-04-24T09:51:35;1.30;;;0.80;;
45887;SDS011;31595;51.418;7.572;2023-04-24T09:54:04;8.65;;;1.33;;
45887;SDS011;31595;51.418;7.572;2023-04-24T09:56:41;1.38;;;0.90;;
45887;SDS011;31595;51.418;7.572;2023-04-24T09:59:11;3.83;;;1.00;;
45887;SDS011;31595;51.418;7.572;2023-04-24T10:01:39;1.65;;;1.00;;
45887;SDS011;31595;51.418;7.572;2023-04-24T10:04:14;3.08;;;1.20;;
45887;SDS011;31595;51.418;7.572;2023-04-24T10:06:43;3.40;;;1.10;;
45887;SDS011;31595;51.418;7.572;2023-04-24T10:09:10;2.22;;;1.45;;
45887;SDS011;31595;51.418;7.572;2023-04-24T10:11:41;3.75;;;2.90;;
45887;SDS011;31595;51.418;7.572;2023-04-24T10:14:13;2.80;;;2.25;;
45887;SDS011;31595;51.418;7.572;2023-04-24T10:16:43;3.05;;;2.20;;
45887;SDS011;31595;51.418;7.572;2023-04-24T10:19:12;4.68;;;2.67;;
45887;SDS011;31595;51.418;7.572;2023-04-24T10:21:40;5.78;;;4.45;;
45887;SDS011;31595;51.418;7.572;2023-04-24T10:24:12;5.57;;;3.33;;
45887;SDS011;31595;51.418;7.572;2023-04-24T10:26:40;3.17;;;2.22;;
45887;SDS011;31595;51.418;7.572;2023-04-24T10:29:07;4.70;;;3.30;;
45887;SDS011;31595;51.418;7.572;2023-04-24T10:31:39;5.65;;;4.63;;
45887;SDS011;31595;51.418;7.572;2023-04-24T10:34:07;6.97;;;5.82;;
45887;SDS011;31595;51.418;7.572;2023-04-24T10:36:38;5.65;;;3.60;;
45887;SDS011;31595;51.418;7.572;2023-04-24T10:39:09;3.90;;;2.72;;
45887;SDS011;31595;51.418;7.572;2023-04-24T10:41:40;2.67;;;1.70;;
45887;SDS011;31595;51.418;7.572;2023-04-24T10:44:08;3.95;;;2.30;;
45887;SDS011;31595;51.418;7.572;2023-04-24T10:46:36;4.45;;;2.30;;
45887;SDS011;31595;51.418;7.572;2023-04-24T10:49:06;2.70;;;2.10;;
45887;SDS011;31595;51.418;7.572;2023-04-24T10:54:24;4.13;;;2.25;;
45887;SDS011;31595;51.418;7.572;2023-04-24T10:56:52;3.38;;;2.67;;
45887;SDS011;31595;51.418;7.572;2023-04-24T10:59:23;5.45;;;3.97;;
45887;SDS011;31595;51.418;7.572;2023-04-24T11:01:52;7.57;;;5.78;;
45887;SDS011;31595;51.418;7.572;2023-04-24T11:04:30;10.32;;;7.65;;
45887;SDS011;31595;51.418;7.572;2023-04-24T11:06:58;9.95;;;7.57;;
45887;SDS011;31595;51.418;7.572;2023-04-24T11:09:26;7.50;;;5.43;;
45887;SDS011;31595;51.418;7.572;2023-04-24T11:12:02;4.78;;;3.40;;
45887;SDS011;31595;51.418;7.572;2023-04-24T11:17:31;6.03;;;4.53;;
45887;SDS011;31595;51.418;7.572;2023-04-24T11:20:04;6.97;;;5.00;;
45887;SDS011;31595;51.418;7.572;2023-04-24T11:22:34;7.55;;;5.15;;
45887;SDS011;31595;51.418;7.572;2023-04-24T11:25:03;8.13;;;6.45;;
45887;SDS011;31595;51.418;7.572;2023-04-24T11:27:32;9.68;;;7.22;;
45887;SDS011;31595;51.418;7.572;2023-04-24T11:30:08;10.10;;;6.80;;
45887;SDS011;31595;51.418;7.572;2023-04-24T11:32:37;10.40;;;8.93;;
45887;SDS011;31595;51.418;7.572;2023-04-24T11:35:08;8.95;;;6.72;;
45887;SDS011;31595;51.418;7.572;2023-04-24T11:37:41;8.60;;;7.07;;
45887;SDS011;31595;51.418;7.572;2023-04-24T11:40:10;11.75;;;7.35;;
45887;SDS011;31595;51.418;7.572;2023-04-24T11:42:39;8.57;;;5.47;;
45887;SDS011;31595;51.418;7.572;2023-04-24T11:45:08;9.73;;;6.57;;
45887;SDS011;31595;51.418;7.572;2023-04-24T11:47:36;8.73;;;5.53;;
45887;SDS011;31595;51.418;7.572;2023-04-24T11:50:04;8.48;;;5.55;;
45887;SDS011;31595;51.418;7.572;2023-04-24T11:52:36;9.73;;;6.03;;
45887;SDS011;31595;51.418;7.572;2023-04-24T11:55:06;10.32;;;7.05;;
45887;SDS011;31595;51.418;7.572;2023-04-24T12:00:02;11.98;;;8.80;;
45887;SDS011;31595;51.418;7.572;2023-04-24T12:04:58;11.45;;;8.63;;
45887;SDS011;31595;51.418;7.572;2023-04-24T12:07:25;33.55;;;18.08;;
45887;SDS011;31595;51.418;7.572;2023-04-24T12:09:57;21.73;;;13.10;;
45887;SDS011;31595;51.418;7.572;2023-04-24T12:12:26;11.50;;;5.35;;
45887;SDS011;31595;51.418;7.572;2023-04-24T12:14:55;7.97;;;5.03;;
45887;SDS011;31595;51.418;7.572;2023-04-24T12:17:24;10.98;;;5.35;;
45887;SDS011;31595;51.418;7.572;2023-04-24T12:19:56;9.10;;;4.82;;
45887;SDS011;31595;51.418;7.572;2023-04-24T12:22:25;12.18;;;5.60;;
45887;SDS011;31595;51.418;7.572;2023-04-24T12:24:56;11.57;;;5.43;;
45887;SDS011;31595;51.418;7.572;2023-04-24T12:27:26;9.82;;;5.88;;
45887;SDS011;31595;51.418;7.572;2023-04-24T12:29:55;9.60;;;5.22;;
45887;SDS011;31595;51.418;7.572;2023-04-24T12:32:23;10.80;;;5.97;;
45887;SDS011;31595;51.418;7.572;2023-04-24T12:34:51;8.15;;;5.60;;
45887;SDS011;31595;51.418;7.572;2023-04-24T12:37:19;7.47;;;5.30;;
45887;SDS011;31595;51.418;7.572;2023-04-24T12:40:04;11.85;;;6.28;;
45887;SDS011;31595;51.418;7.572;2023-04-24T12:42:33;9.35;;;6.43;;
45887;SDS011;31595;51.418;7.572;2023-04-24T12:45:02;9.35;;;6.18;;
45887;SDS011;31595;51.418;7.572;2023-04-24T12:47:32;7.85;;;5.03;;
45887;SDS011;31595;51.418;7.572;2023-04-24T12:50:01;10.75;;;5.47;;
45887;SDS011;31595;51.418;7.572;2023-04-24T12:52:29;9.73;;;4.18;;
45887;SDS011;31595;51.418;7.572;2023-04-24T12:54:57;11.15;;;4.90;;
45887;SDS011;31595;51.418;7.572;2023-04-24T12:57:28;6.28;;;4.18;;
45887;SDS011;31595;51.418;7.572;2023-04-24T12:59:57;8.27;;;4.80;;
45887;SDS011;31595;51.418;7.572;2023-04-24T13:02:26;9.10;;;4.40;;
45887;SDS011;31595;51.418;7.572;2023-04-24T13:04:55;9.20;;;4.80;;
45887;SDS011;31595;51.418;7.572;2023-04-24T13:07:23;8.65;;;5.18;;
45887;SDS011;31595;51.418;7.572;2023-04-24T13:09:51;8.45;;;5.57;;
45887;SDS011;31595;51.418;7.572;2023-04-24T13:12:19;8.30;;;5.38;;
45887;SDS011;31595;51.418;7.572;2023-04-24T13:14:48;9.45;;;6.15;;
45887;SDS011;31595;51.418;7.572;2023-04-24T13:17:15;9.95;;;6.82;;
45887;SDS011;31595;51.418;7.572;2023-04-24T13:19:43;8.95;;;6.25;;
45887;SDS011;31595;51.418;7.572;2023-04-24T13:22:11;12.32;;;5.60;;
45887;SDS011;31595;51.418;7.572;2023-04-24T13:24:39;8.05;;;4.78;;
45887;SDS011;31595;51.418;7.572;2023-04-24T13:27:07;9.02;;;5.10;;
45887;SDS011;31595;51.418;7.572;2023-04-24T13:29:35;9.57;;;5.75;;
45887;SDS011;31595;51.418;7.572;2023-04-24T13:32:04;5.85;;;4.10;;
45887;SDS011;31595;51.418;7.572;2023-04-24T13:34:32;5.93;;;3.63;;
45887;SDS011;31595;51.418;7.572;2023-04-24T13:37:00;8.07;;;5.13;;
45887;SDS011;31595;51.418;7.572;2023-04-24T13:39:29;6.53;;;4.45;;
45887;SDS011;31595;51.418;7.572;2023-04-24T13:41:56;7.97;;;4.43;;
45887;SDS011;31595;51.418;7.572;2023-04-24T13:44:25;10.75;;;5.15;;
45887;SDS011;31595;51.418;7.572;2023-04-24T13:46:53;7.15;;;4.25;;
45887;SDS011;31595;51.418;7.572;2023-04-24T13:49:24;4.30;;;2.90;;
45887;SDS011;31595;51.418;7.572;2023-04-24T13:51:52;5.20;;;2.40;;
45887;SDS011;31595;51.418;7.572;2023-04-24T13:54:19;3.45;;;2.22;;
45887;SDS011;31595;51.418;7.572;2023-04-24T13:56:48;5.78;;;2.10;;
45887;SDS011;31595;51.418;7.572;2023-04-24T13:59:16;5.63;;;2.38;;
45887;SDS011;31595;51.418;7.572;2023-04-24T14:01:43;5.93;;;3.28;;
45887;SDS011;31595;51.418;7.572;2023-04-24T14:04:11;3.38;;;2.47;;
45887;SDS011;31595;51.418;7.572;2023-04-24T14:06:40;5.10;;;2.75;;
45887;SDS011;31595;51.418;7.572;2023-04-24T14:09:07;5.18;;;2.67;;
45887;SDS011;31595;51.418;7.572;2023-04-24T14:11:34;5.22;;;3.30;;
45887;SDS011;31595;51.418;7.572;2023-04-24T14:14:02;4.30;;;2.33;;
45887;SDS011;31595;51.418;7.572;2023-04-24T14:16:29;4.85;;;2.67;;
45887;SDS011;31595;51.418;7.572;2023-04-24T14:18:57;6.63;;;2.80;;
45887;SDS011;31595;51.418;7.572;2023-04-24T14:21:24;4.05;;;2.42;;
45887;SDS011;31595;51.418;7.572;2023-04-24T14:23:53;7.18;;;3.45;;
45887;SDS011;31595;51.418;7.572;2023-04-24T14:26:20;4.60;;;1.90;;
45887;SDS011;31595;51.418;7.572;2023-04-24T14:28:47;4.28;;;2.00;;
45887;SDS011;31595;51.418;7.572;2023-04-24T14:31:15;4.15;;;2.67;;
45887;SDS011;31595;51.418;7.572;2023-04-24T14:33:42;3.85;;;2.22;;
45887;SDS011;31595;51.418;7.572;2023-04-24T14:36:09;4.60;;;2.40;;
45887;SDS011;31595;51.418;7.572;2023-04-24T14:38:37;3.55;;;1.88;;
45887;SDS011;31595;51.418;7.572;2023-04-24T14:41:05;4.18;;;1.73;;
45887;SDS011;31595;51.418;7.572;2023-04-24T14:43:35;4.03;;;1.50;;
45887;SDS011;31595;51.418;7.572;2023-04-24T14:46:04;4.57;;;2.10;;
45887;SDS011;31595;51.418;7.572;2023-04-24T14:48:31;3.63;;;2.10;;
45887;SDS011;31595;51.418;7.572;2023-04-24T14:50:58;4.75;;;3.22;;
45887;SDS011;31595;51.418;7.572;2023-04-24T14:53:26;6.05;;;3.10;;
45887;SDS011;31595;51.418;7.572;2023-04-24T14:55:53;4.30;;;2.70;;
45887;SDS011;31595;51.418;7.572;2023-04-24T14:58:21;7.45;;;3.58;;
45887;SDS011;31595;51.418;7.572;2023-04-24T15:00:49;6.70;;;4.30;;
45887;SDS011;31595;51.418;7.572;2023-04-24T15:03:18;5.30;;;2.38;;
45887;SDS011;31595;51.418;7.572;2023-04-24T15:05:46;4.25;;;1.90;;
45887;SDS011;31595;51.418;7.572;2023-04-24T15:08:14;4.22;;;1.73;;
45887;SDS011;31595;51.418;7.572;2023-04-24T15:10:41;5.00;;;1.90;;